Terminal Aerodrome Forecast
Issued by NWS

Home | Current Version | Previous Version | Text Only | Print | Product List | Glossary Off
Versions: 1 2 3 4 5 6 7 8 9 10 11 12

000
FTUS43 KGRB 232300
TAFATW
TAF
KATW 232320Z 2400/2424 30010KT P6SM SKC
     FM240100 VRB03KT P6SM SKC
     FM240800 09005KT P6SM BKN200
     FM241700 14008KT P6SM BKN100
     FM242200 12011KT P6SM OVC070=

USA.gov is the U.S. government's official web portal to all federal, state and local government web resources and services.